Time;durP1;ratioP1;P1;durP2;ratioP2;P2;SDS_P1;SDS_P2;PMS_P1;PMS_P2;Temp;Humidity;BMP_temperature;BMP_pressure;BME280_temperature;BME280_humidity;BME280_pressure;Samples;Min_cycle;Max_cycle;Signal;HPM_P1;HPM_P2
2021/12/20 00:00:42;;;;;;;8.23;1.65;;;19.00;59.70;;;;;;4959186;28;95436;-38
2021/12/20 00:03:14;;;;;;;7.15;1.52;;;19.00;60.50;;;;;;4957045;28;94941;-39
2021/12/20 00:05:48;;;;;;;15.00;2.22;;;19.10;59.80;;;;;;4958416;28;95325;-40
2021/12/20 00:08:19;;;;;;;5.82;1.65;;;19.10;60.50;;;;;;4959308;28;95019;-39
2021/12/20 00:10:52;;;;;;;4.47;1.92;;;19.20;59.70;;;;;;4958991;28;95228;-40
2021/12/20 00:13:25;;;;;;;6.40;1.63;;;19.30;60.00;;;;;;4957975;28;95526;-39
2021/12/20 00:15:58;;;;;;;7.38;2.35;;;19.30;60.20;;;;;;4959824;28;95066;-39
2021/12/20 00:18:31;;;;;;;6.47;1.85;;;19.20;58.50;;;;;;4959591;28;95873;-40
2021/12/20 00:21:06;;;;;;;5.60;1.90;;;19.20;58.60;;;;;;4959137;28;95242;-40
2021/12/20 00:23:38;;;;;;;6.35;1.90;;;19.20;58.90;;;;;;4959650;28;95086;-39
2021/12/20 00:26:12;;;;;;;6.65;1.65;;;19.30;59.10;;;;;;4959402;28;95215;-39
2021/12/20 00:28:45;;;;;;;5.47;1.80;;;19.40;59.00;;;;;;4990435;28;96749;-40
2021/12/20 00:31:17;;;;;;;4.93;1.60;;;19.50;59.30;;;;;;4958961;28;95621;-40
2021/12/20 00:33:49;;;;;;;9.45;2.35;;;19.60;59.90;;;;;;4959268;28;94914;-40
2021/12/20 00:36:24;;;;;;;6.57;2.03;;;19.70;58.60;;;;;;4959102;28;95322;-40
2021/12/20 00:41:47;;;;;;;7.88;2.17;;;19.70;57.30;;;;;;4958918;28;95835;-39
2021/12/20 00:44:19;;;;;;;6.57;1.48;;;19.70;56.50;;;;;;4959253;28;95058;-39
2021/12/20 00:46:55;;;;;;;5.88;1.52;;;19.80;58.40;;;;;;4959239;28;95144;-40
2021/12/20 00:49:30;;;;;;;6.40;1.55;;;19.90;58.50;;;;;;4960097;28;95881;-39
2021/12/20 00:52:05;;;;;;;6.10;2.33;;;20.00;58.80;;;;;;4959380;28;95271;-39
2021/12/20 00:54:39;;;;;;;3.90;1.35;;;20.10;58.80;;;;;;4958653;28;94947;-39
2021/12/20 00:57:12;;;;;;;8.70;2.30;;;20.20;58.90;;;;;;4960284;28;95216;-39
2021/12/20 00:59:45;;;;;;;7.07;2.05;;;20.30;58.50;;;;;;4958637;28;95911;-40
2021/12/20 01:02:18;;;;;;;4.13;1.33;;;20.30;58.10;;;;;;4957589;28;95266;-39
2021/12/20 01:04:50;;;;;;;9.02;2.47;;;20.40;58.50;;;;;;4959736;28;95011;-39
2021/12/20 01:07:23;;;;;;;5.78;1.50;;;20.40;57.80;;;;;;4959057;28;95275;-40
2021/12/20 01:09:58;;;;;;;5.90;1.60;;;20.50;58.40;;;;;;4958237;28;95889;-40
2021/12/20 01:12:41;;;;;;;9.13;2.28;;;20.50;57.90;;;;;;4957741;28;95425;-40
2021/12/20 01:15:45;;;;;;;3.88;1.42;;;20.50;57.90;;;;;;4958407;28;94959;-40
2021/12/20 01:18:20;;;;;;;6.72;1.85;;;20.60;57.50;;;;;;4958119;28;95371;-39
2021/12/20 01:20:53;;;;;;;3.70;1.48;;;20.60;58.10;;;;;;4957870;28;96648;-40
2021/12/20 01:23:25;;;;;;;9.40;1.85;;;20.60;57.70;;;;;;4958297;28;95307;-40
2021/12/20 01:25:58;;;;;;;4.97;1.83;;;20.70;57.80;;;;;;4958265;28;94900;-40
2021/12/20 01:28:31;;;;;;;5.95;1.60;;;20.70;58.00;;;;;;4958744;28;95250;-40
2021/12/20 01:31:04;;;;;;;5.03;1.70;;;20.80;57.60;;;;;;4957702;28;96434;-40
2021/12/20 01:33:37;;;;;;;4.75;1.77;;;20.80;57.60;;;;;;4956420;28;95853;-40
2021/12/20 01:36:10;;;;;;;4.93;1.65;;;20.80;57.20;;;;;;4958026;28;94922;-40
2021/12/20 01:38:43;;;;;;;8.35;2.20;;;20.80;57.40;;;;;;4958494;28;95295;-40
2021/12/20 01:41:15;;;;;;;6.38;1.73;;;20.90;57.60;;;;;;4957998;28;95930;-40
2021/12/20 01:43:48;;;;;;;3.60;1.40;;;21.00;57.50;;;;;;4957625;28;95237;-40
2021/12/20 01:46:18;;;;;;;3.95;1.58;;;21.00;56.90;;;;;;4959216;28;94904;-39
2021/12/20 01:48:50;;;;;;;5.38;2.30;;;21.00;57.20;;;;;;4959510;28;95169;-39
2021/12/20 01:54:01;;;;;;;5.00;1.75;;;21.10;57.20;;;;;;4990517;28;95127;-40
2021/12/20 01:56:36;;;;;;;6.32;1.60;;;21.20;56.80;;;;;;4959256;28;94966;-40
2021/12/20 01:59:09;;;;;;;5.95;1.38;;;21.20;57.00;;;;;;4958300;28;95255;-40
2021/12/20 02:01:47;;;;;;;2.40;1.25;;;21.20;56.60;;;;;;4957867;28;96068;-40
2021/12/20 02:04:20;;;;;;;5.05;1.88;;;21.30;56.80;;;;;;4958501;28;95109;-40
2021/12/20 02:06:54;;;;;;;5.95;1.95;;;21.30;56.90;;;;;;4957903;28;94942;-40
2021/12/20 02:09:29;;;;;;;5.43;1.67;;;21.30;56.70;;;;;;4957843;28;95836;-40
2021/12/20 02:12:01;;;;;;;4.55;1.40;;;21.40;56.90;;;;;;4956417;28;96440;-38
2021/12/20 02:14:34;;;;;;;;;;;21.40;56.40;;;;;;4956217;28;96248;-40
2021/12/20 02:17:07;;;;;;;5.07;1.52;;;21.50;56.50;;;;;;4958247;28;95115;-41
2021/12/20 02:19:41;;;;;;;4.03;1.42;;;21.50;56.70;;;;;;4958378;28;95248;-41
2021/12/20 02:22:14;;;;;;;5.30;1.70;;;21.50;56.70;;;;;;4957728;28;96651;-41
2021/12/20 02:24:46;;;;;;;4.75;1.92;;;21.60;56.90;;;;;;4957623;28;95313;-40
2021/12/20 02:27:22;;;;;;;4.65;2.13;;;21.60;56.60;;;;;;4961444;28;94886;-40
2021/12/20 02:30:11;;;;;;;3.13;1.20;;;21.70;56.50;;;;;;4961141;28;95293;-40
2021/12/20 02:38:33;;;;;;;6.93;1.73;;;21.80;56.20;;;;;;4960981;28;95113;-40
2021/12/20 02:41:15;;;;;;;4.85;1.40;;;21.80;56.50;;;;;;4961282;28;95231;-40
2021/12/20 02:43:55;;;;;;;3.28;1.40;;;21.90;56.60;;;;;;4960472;28;96514;-40
2021/12/20 02:49:21;;;;;;;5.57;1.45;;;22.00;56.50;;;;;;4961870;28;94903;-39
2021/12/20 02:51:58;;;;;;;3.35;1.10;;;22.10;56.50;;;;;;4961929;28;95199;-40
2021/12/20 02:54:30;;;;;;;4.07;1.48;;;22.10;56.60;;;;;;4961525;28;96058;-39
2021/12/20 02:57:04;;;;;;;4.13;1.40;;;22.20;56.60;;;;;;4961718;28;96327;-39
2021/12/20 02:59:36;;;;;;;5.38;1.55;;;22.20;56.40;;;;;;4960684;28;94938;-40
2021/12/20 03:02:10;;;;;;;7.88;1.77;;;22.30;56.10;;;;;;4959479;28;95250;-39
2021/12/20 03:04:46;;;;;;;2.92;1.50;;;22.30;56.20;;;;;;4961117;28;96049;-39
2021/12/20 03:07:24;;;;;;;4.18;1.60;;;22.40;56.00;;;;;;4960281;28;95075;-38
2021/12/20 03:10:02;;;;;;;4.88;1.83;;;22.50;56.00;;;;;;4959794;28;94972;-38
2021/12/20 03:12:34;;;;;;;4.68;1.92;;;22.60;55.40;;;;;;4960748;28;95198;-39
2021/12/20 03:15:14;;;;;;;4.25;1.40;;;22.60;55.60;;;;;;4959819;28;96102;-39
2021/12/20 03:17:46;;;;;;;4.97;2.00;;;22.70;55.80;;;;;;4959049;28;95948;-39
2021/12/20 03:20:18;;;;;;;7.35;1.75;;;22.70;56.00;;;;;;4960015;28;94922;-38
2021/12/20 03:22:52;;;;;;;3.75;1.10;;;22.80;55.70;;;;;;4960230;28;95361;-39
2021/12/20 03:25:24;;;;;;;4.60;2.25;;;22.90;55.70;;;;;;4960205;28;96091;-39
2021/12/20 03:27:58;;;;;;;3.50;1.45;;;22.90;55.80;;;;;;4959765;28;95771;-38
2021/12/20 03:30:30;;;;;;;3.53;1.48;;;23.10;55.30;;;;;;4959027;28;94988;-39
2021/12/20 03:33:02;;;;;;;5.25;2.25;;;23.10;55.10;;;;;;4960485;28;95092;-40
2021/12/20 03:35:34;;;;;;;;;;;23.10;54.80;;;;;;4960043;28;95925;-40
2021/12/20 03:38:09;;;;;;;7.28;2.15;;;23.20;54.60;;;;;;4961069;28;95326;-39
2021/12/20 03:40:40;;;;;;;4.10;1.50;;;23.20;54.80;;;;;;4960187;28;94932;-39
2021/12/20 03:43:13;;;;;;;7.45;2.08;;;23.20;54.90;;;;;;4960298;28;95108;-40
2021/12/20 03:45:49;;;;;;;3.17;1.27;;;23.20;54.90;;;;;;4959177;28;95511;-40
2021/12/20 03:48:22;;;;;;;4.68;1.92;;;23.20;54.50;;;;;;4960726;28;95246;-43
2021/12/20 03:50:55;;;;;;;3.83;1.83;;;23.30;54.40;;;;;;4949800;28;96052;-39
2021/12/20 03:53:26;;;;;;;4.95;1.33;;;23.30;54.30;;;;;;4944807;28;95808;-40
2021/12/20 03:55:57;;;;;;;3.80;1.33;;;23.40;54.30;;;;;;4944571;28;96721;-40
2021/12/20 03:58:28;;;;;;;3.75;1.58;;;23.40;54.40;;;;;;4945276;28;96538;-40
2021/12/20 04:01:04;;;;;;;5.85;2.08;;;23.40;54.30;;;;;;4941744;28;95851;-40
2021/12/20 04:03:35;;;;;;;4.53;1.75;;;23.40;54.20;;;;;;4947684;28;95762;-39
2021/12/20 04:06:07;;;;;;;4.93;1.60;;;23.50;54.40;;;;;;4945689;28;95902;-40
2021/12/20 04:08:39;;;;;;;3.88;1.55;;;23.50;54.50;;;;;;4945987;28;97561;-40
2021/12/20 04:11:11;;;;;;;4.60;1.75;;;23.50;54.70;;;;;;4942737;28;95535;-40
2021/12/20 04:13:44;;;;;;;7.45;1.70;;;23.60;54.80;;;;;;4945106;28;95764;-39
2021/12/20 04:16:16;;;;;;;4.85;1.67;;;23.70;55.10;;;;;;4936527;28;96191;-38
2021/12/20 04:18:49;;;;;;;4.90;1.83;;;23.70;54.80;;;;;;4944219;28;96150;-39
2021/12/20 04:21:19;;;;;;;5.38;1.52;;;23.80;55.80;;;;;;4945772;28;96476;-39
2021/12/20 04:23:50;;;;;;;3.67;1.52;;;23.80;55.40;;;;;;4945619;28;95770;-40
2021/12/20 04:26:21;;;;;;;3.33;1.50;;;23.90;55.30;;;;;;4945291;28;97116;-45
2021/12/20 04:28:53;;;;;;;4.95;1.70;;;23.90;55.20;;;;;;4945132;28;95888;-46
2021/12/20 04:31:27;;;;;;;4.32;1.50;;;24.00;54.50;;;;;;4939024;28;95520;-46
2021/12/20 04:33:57;;;;;;;3.47;1.58;;;24.10;54.70;;;;;;4944869;28;95700;-40
2021/12/20 04:36:29;;;;;;;3.10;1.17;;;24.10;54.70;;;;;;4945262;28;96055;-46
2021/12/20 04:39:01;;;;;;;2.00;1.27;;;24.10;54.20;;;;;;4943171;28;95815;-47
2021/12/20 04:41:32;;;;;;;3.97;1.60;;;24.20;54.40;;;;;;4943254;28;95778;-45
2021/12/20 04:44:05;;;;;;;3.58;1.80;;;24.30;54.40;;;;;;4943768;28;96524;-46
2021/12/20 04:46:35;;;;;;;4.00;1.33;;;24.30;54.40;;;;;;4937505;28;96011;-47
2021/12/20 04:49:06;;;;;;;2.90;1.60;;;24.40;54.40;;;;;;4941096;28;95783;-46
2021/12/20 04:51:38;;;;;;;4.55;1.70;;;24.40;54.10;;;;;;4946267;28;95395;-40
2021/12/20 04:54:09;;;;;;;3.63;1.90;;;24.30;52.30;;;;;;4945790;28;95980;-40
2021/12/20 04:56:39;;;;;;;4.00;1.75;;;24.00;52.00;;;;;;4945683;28;96652;-40
2021/12/20 04:59:09;;;;;;;3.97;1.83;;;23.80;52.40;;;;;;4942025;28;95652;-40
2021/12/20 05:01:41;;;;;;;4.70;1.85;;;23.80;52.20;;;;;;4938031;28;97285;-40
2021/12/20 05:04:12;;;;;;;;;;;23.70;51.90;;;;;;4943610;28;96734;-40
2021/12/20 05:06:45;;;;;;;2.78;1.60;;;23.60;52.00;;;;;;4944669;28;96608;-40
2021/12/20 05:09:20;;;;;;;5.38;1.25;;;23.70;52.10;;;;;;4941479;28;98031;-40
2021/12/20 05:12:01;;;;;;;3.97;1.70;;;23.70;51.60;;;;;;4942432;28;96527;-40
2021/12/20 05:14:32;;;;;;;3.65;1.48;;;23.70;51.00;;;;;;4941772;28;97296;-39
2021/12/20 05:17:04;;;;;;;3.05;1.50;;;23.70;50.70;;;;;;4937436;28;96642;-40
2021/12/20 05:19:35;;;;;;;4.30;1.65;;;23.60;50.90;;;;;;4942304;28;95653;-41
2021/12/20 05:22:07;;;;;;;2.97;1.30;;;23.60;51.10;;;;;;4941370;28;96428;-40
2021/12/20 05:24:41;;;;;;;4.30;1.38;;;23.60;51.00;;;;;;4941836;28;95923;-39
2021/12/20 05:27:12;;;;;;;3.03;1.15;;;23.60;50.60;;;;;;4942344;28;96867;-40
2021/12/20 05:29:43;;;;;;;2.83;1.33;;;23.70;50.70;;;;;;4944253;28;97248;-39
2021/12/20 05:32:14;;;;;;;2.80;1.60;;;23.70;50.20;;;;;;4937244;28;95880;-40
2021/12/20 05:34:46;;;;;;;2.28;1.23;;;23.80;50.30;;;;;;4942548;28;95755;-39
2021/12/20 05:37:18;;;;;;;6.05;1.92;;;23.80;49.40;;;;;;4942442;28;96135;-40
2021/12/20 05:39:49;;;;;;;4.38;1.25;;;23.70;49.80;;;;;;4942900;28;95817;-40
2021/12/20 05:42:19;;;;;;;2.60;1.35;;;23.70;49.90;;;;;;4944203;28;95759;-39
2021/12/20 05:44:51;;;;;;;4.93;1.67;;;23.70;49.50;;;;;;4944336;28;95791;-40
2021/12/20 05:47:24;;;;;;;5.72;1.50;;;23.80;50.00;;;;;;4939551;28;96601;-40
2021/12/20 05:49:55;;;;;;;3.88;1.10;;;23.80;49.40;;;;;;4944595;28;97399;-40
2021/12/20 05:52:27;;;;;;;3.67;1.60;;;23.90;50.40;;;;;;4944558;28;95969;-39
2021/12/20 05:54:57;;;;;;;2.42;1.33;;;24.10;50.60;;;;;;4943932;28;96314;-40
2021/12/20 05:57:28;;;;;;;4.32;1.38;;;24.20;50.90;;;;;;4944181;28;96157;-40
2021/12/20 06:00:00;;;;;;;4.32;1.48;;;24.30;50.90;;;;;;4943298;28;95944;-40
2021/12/20 06:02:41;;;;;;;2.53;1.20;;;24.40;51.10;;;;;;4946771;28;96076;-39
2021/12/20 06:05:15;;;;;;;4.93;1.50;;;24.50;51.20;;;;;;4948574;28;95404;-40
2021/12/20 06:07:47;;;;;;;6.35;1.45;;;24.60;51.30;;;;;;4946508;28;98039;-40
2021/12/20 06:10:20;;;;;;;2.30;1.45;;;24.70;51.40;;;;;;4946561;28;95368;-40
2021/12/20 06:12:51;;;;;;;3.88;1.45;;;24.70;51.50;;;;;;4945552;28;96338;-40
2021/12/20 06:15:21;;;;;;;;;;;24.80;51.40;;;;;;4943553;28;96440;-40
2021/12/20 06:17:53;;;;;;;3.40;1.30;;;24.90;51.60;;;;;;4945646;28;96327;-39
2021/12/20 06:20:25;;;;;;;1.52;1.08;;;24.90;51.70;;;;;;4945391;28;96264;-40
2021/12/20 06:22:56;;;;;;;5.07;1.67;;;24.90;51.70;;;;;;4946312;28;96026;-42
2021/12/20 06:25:28;;;;;;;2.92;1.35;;;25.00;50.70;;;;;;4947220;28;95313;-41
2021/12/20 06:27:59;;;;;;;3.53;1.20;;;24.80;49.40;;;;;;4944497;28;96660;-41
2021/12/20 06:30:31;;;;;;;4.90;1.52;;;24.60;49.90;;;;;;4940540;28;95886;-41
2021/12/20 06:33:01;;;;;;;5.63;2.22;;;24.60;49.80;;;;;;4947383;28;97360;-41
2021/12/20 06:35:36;;;;;;;6.28;1.42;;;24.70;49.30;;;;;;4947645;28;96054;-42
2021/12/20 06:38:11;;;;;;;5.88;1.50;;;24.40;49.60;;;;;;4946363;28;96160;-44
2021/12/20 06:40:41;;;;;;;6.28;1.60;;;24.40;49.30;;;;;;4946400;28;97922;-41
2021/12/20 06:43:12;;;;;;;3.35;1.77;;;24.30;48.90;;;;;;4945326;28;96370;-41
2021/12/20 06:45:44;;;;;;;4.15;1.45;;;24.20;49.10;;;;;;4937975;28;96039;-41
2021/12/20 06:48:15;;;;;;;6.18;1.58;;;24.20;50.80;;;;;;4946236;28;96047;-41
2021/12/20 06:50:46;;;;;;;3.33;1.20;;;24.40;49.20;;;;;;4946080;28;95937;-45
2021/12/20 06:53:18;;;;;;;6.53;1.60;;;24.30;49.20;;;;;;4948850;28;95640;-42
2021/12/20 06:55:48;;;;;;;2.15;1.30;;;24.40;50.00;;;;;;4946792;28;95774;-40
2021/12/20 06:58:18;;;;;;;3.10;1.60;;;24.50;50.30;;;;;;4946503;28;96693;-40
2021/12/20 07:00:52;;;;;;;4.20;1.73;;;24.60;50.20;;;;;;4939840;28;98643;-39
2021/12/20 07:03:24;;;;;;;4.82;1.60;;;24.80;50.40;;;;;;4946249;28;95684;-40
2021/12/20 07:05:57;;;;;;;5.25;1.85;;;24.80;50.50;;;;;;4946228;28;96767;-41
2021/12/20 07:08:30;;;;;;;1.60;1.33;;;24.80;50.50;;;;;;4945839;28;97386;-41
2021/12/20 07:11:00;;;;;;;4.07;1.83;;;24.90;51.20;;;;;;4945792;28;96598;-40
2021/12/20 07:13:31;;;;;;;5.40;2.13;;;24.90;50.60;;;;;;4947228;28;96518;-40
2021/12/20 07:16:02;;;;;;;6.80;1.88;;;24.90;50.70;;;;;;4940499;28;95823;-40
2021/12/20 07:18:35;;;;;;;5.35;2.17;;;24.90;50.70;;;;;;4943869;28;95968;-40
2021/12/20 07:21:08;;;;;;;5.32;2.35;;;25.00;50.90;;;;;;4936928;28;96092;-40
2021/12/20 07:23:43;;;;;;;2.90;1.50;;;24.90;50.70;;;;;;4945960;28;95419;-40
2021/12/20 07:26:15;;;;;;;4.95;1.30;;;24.90;50.80;;;;;;4944931;28;95739;-40
2021/12/20 07:28:46;;;;;;;3.72;1.83;;;24.90;50.90;;;;;;4941908;28;96832;-40
2021/12/20 07:31:18;;;;;;;4.38;1.92;;;24.90;51.00;;;;;;4938786;28;95956;-41
2021/12/20 07:33:48;;;;;;;4.95;1.50;;;24.90;51.20;;;;;;4944268;28;95454;-40
2021/12/20 07:36:21;;;;;;;4.70;1.83;;;25.00;51.20;;;;;;4945220;28;95426;-40
2021/12/20 07:38:52;;;;;;;4.70;1.30;;;25.00;51.40;;;;;;4944772;28;96643;-40
2021/12/20 07:41:24;;;;;;;4.80;1.70;;;25.00;51.50;;;;;;4944487;28;96565;-39
2021/12/20 07:43:55;;;;;;;3.22;1.60;;;25.00;51.40;;;;;;4945423;28;98433;-42
2021/12/20 07:46:25;;;;;;;;;;;25.00;51.60;;;;;;4941133;28;96511;-40
2021/12/20 07:48:57;;;;;;;2.92;1.40;;;25.00;51.60;;;;;;4946742;28;95991;-40
2021/12/20 07:51:30;;;;;;;3.33;1.67;;;25.00;51.60;;;;;;4943334;28;95975;-40
2021/12/20 07:54:01;;;;;;;3.00;1.65;;;25.00;51.70;;;;;;4946056;28;96293;-40
2021/12/20 07:56:32;;;;;;;2.17;1.13;;;25.00;51.90;;;;;;4944788;28;97251;-40
2021/12/20 07:59:03;;;;;;;;;;;25.00;51.90;;;;;;4945704;28;95815;-40
2021/12/20 08:01:35;;;;;;;;;;;25.00;51.90;;;;;;4939288;28;96507;-40
2021/12/20 08:04:08;;;;;;;4.47;1.40;;;25.00;52.00;;;;;;4946000;28;95984;-41
2021/12/20 08:06:42;;;;;;;5.97;2.03;;;25.10;52.30;;;;;;4945091;28;97992;-40
2021/12/20 08:09:14;;;;;;;4.60;1.65;;;25.10;53.10;;;;;;4943710;28;96591;-40
2021/12/20 08:11:44;;;;;;;3.63;1.70;;;25.10;52.60;;;;;;4943197;28;97073;-40
2021/12/20 08:14:16;;;;;;;4.90;1.70;;;25.10;52.60;;;;;;4943128;28;96071;-40
2021/12/20 08:16:48;;;;;;;5.40;2.42;;;25.10;52.80;;;;;;4939766;28;95932;-39
2021/12/20 08:19:21;;;;;;;3.33;1.58;;;25.00;52.70;;;;;;4943832;28;96680;-39
2021/12/20 08:21:54;;;;;;;6.53;2.17;;;25.00;52.90;;;;;;4943553;28;95780;-40
2021/12/20 08:24:29;;;;;;;8.57;2.50;;;25.00;53.30;;;;;;4942049;28;95896;-40
2021/12/20 08:27:02;;;;;;;9.10;2.53;;;25.10;53.80;;;;;;4943274;28;95981;-40
2021/12/20 08:29:32;;;;;;;7.30;2.90;;;25.00;53.90;;;;;;4943807;28;96055;-40
2021/12/20 08:32:03;;;;;;;7.15;3.58;;;25.00;54.00;;;;;;4937649;28;96215;-40
2021/12/20 08:34:32;;;;;;;8.17;2.70;;;25.00;54.70;;;;;;4944181;28;95990;-40
2021/12/20 08:37:04;;;;;;;8.52;2.88;;;25.00;54.60;;;;;;4943556;28;96064;-40
2021/12/20 08:39:35;;;;;;;13.00;3.67;;;24.90;55.40;;;;;;4943246;28;95996;-39
2021/12/20 08:42:06;;;;;;;;;;;24.90;56.10;;;;;;4940879;28;96141;-40
2021/12/20 08:44:38;;;;;;;9.50;3.72;;;24.90;55.80;;;;;;4944839;28;95815;-40
2021/12/20 08:47:09;;;;;;;14.10;4.53;;;24.90;55.90;;;;;;4937848;28;96240;-40
2021/12/20 08:49:41;;;;;;;12.50;3.97;;;24.80;56.30;;;;;;4936665;28;96275;-40
2021/12/20 08:52:12;;;;;;;11.88;4.35;;;24.80;56.30;;;;;;4945088;28;95613;-39
2021/12/20 08:54:42;;;;;;;16.45;4.85;;;24.70;56.80;;;;;;4941779;28;95719;-39
2021/12/20 08:57:13;;;;;;;22.83;5.40;;;24.60;56.80;;;;;;4944026;28;95771;-40
2021/12/20 08:59:44;;;;;;;15.27;4.50;;;24.60;57.10;;;;;;4947750;28;96651;-40
2021/12/20 09:02:15;;;;;;;;;;;24.40;57.50;;;;;;4945924;28;96069;-40
2021/12/20 09:04:47;;;;;;;22.15;4.97;;;24.30;58.50;;;;;;4951707;28;97389;-40
2021/12/20 09:07:18;;;;;;;21.70;5.45;;;24.20;58.50;;;;;;4947085;28;95674;-40
2021/12/20 09:09:50;;;;;;;20.95;5.40;;;24.10;58.70;;;;;;4943725;28;96255;-40
2021/12/20 09:12:21;;;;;;;21.90;5.07;;;24.00;58.90;;;;;;4941778;28;98235;-40
2021/12/20 09:14:51;;;;;;;;;;;23.90;59.10;;;;;;4946797;28;95806;-40
2021/12/20 09:17:23;;;;;;;17.25;5.28;;;23.80;59.30;;;;;;4943056;28;96850;-40
2021/12/20 09:19:55;;;;;;;21.25;5.32;;;23.70;59.40;;;;;;4947520;28;96558;-40
2021/12/20 09:22:30;;;;;;;19.15;5.88;;;23.70;59.60;;;;;;4946519;28;95989;-40
2021/12/20 09:25:02;;;;;;;22.23;6.07;;;23.60;59.60;;;;;;4948045;28;96004;-40
2021/12/20 09:27:35;;;;;;;25.38;6.90;;;23.50;59.70;;;;;;4942894;28;96373;-40
2021/12/20 09:30:07;;;;;;;24.30;6.97;;;23.40;60.20;;;;;;4935960;28;97083;-40
2021/12/20 09:32:37;;;;;;;;;;;23.20;60.50;;;;;;4940849;28;96797;-40
2021/12/20 09:35:07;;;;;;;22.50;6.30;;;23.10;61.20;;;;;;4943122;28;95875;-40
2021/12/20 09:37:39;;;;;;;20.10;6.63;;;23.00;61.70;;;;;;4947216;28;95627;-40
2021/12/20 09:40:14;;;;;;;30.70;7.10;;;22.90;62.00;;;;;;4947197;28;95902;-40
2021/12/20 09:42:55;;;;;;;27.67;7.45;;;22.80;62.50;;;;;;4947188;28;95672;-40
2021/12/20 09:45:26;;;;;;;24.67;6.40;;;22.60;62.70;;;;;;4941126;28;95596;-40
2021/12/20 09:47:59;;;;;;;26.08;6.70;;;22.60;62.80;;;;;;4946769;28;95901;-40
2021/12/20 09:50:30;;;;;;;24.23;7.28;;;22.50;63.10;;;;;;4946220;28;96212;-40
2021/12/20 09:53:07;;;;;;;32.13;7.03;;;22.40;63.00;;;;;;4947136;28;96913;-40
2021/12/20 09:55:39;;;;;;;24.58;6.72;;;22.30;63.60;;;;;;4949003;28;95844;-40
2021/12/20 09:58:10;;;;;;;30.85;8.07;;;22.30;63.60;;;;;;4948919;28;95791;-39
2021/12/20 10:00:42;;;;;;;29.23;8.43;;;22.30;63.60;;;;;;4937494;28;96225;-40
2021/12/20 10:03:14;;;;;;;26.88;7.07;;;22.20;63.40;;;;;;4944251;28;96747;-40
2021/12/20 10:05:46;;;;;;;24.63;7.28;;;22.20;63.50;;;;;;4945833;28;95732;-40
2021/12/20 10:08:20;;;;;;;30.48;7.13;;;22.10;63.80;;;;;;4949534;28;95804;-40
2021/12/20 10:10:52;;;;;;;32.10;8.50;;;22.00;64.10;;;;;;4947634;28;96629;-40
2021/12/20 10:13:24;;;;;;;;;;;21.90;64.30;;;;;;4947309;28;95546;-40
2021/12/20 10:15:58;;;;;;;23.58;7.63;;;21.80;64.70;;;;;;4943791;28;95685;-40
2021/12/20 10:18:35;;;;;;;26.48;7.93;;;21.70;65.00;;;;;;4946159;28;95878;-40
2021/12/20 10:21:05;;;;;;;22.25;6.90;;;21.70;65.20;;;;;;4946676;28;97731;-40
2021/12/20 10:23:45;;;;;;;35.60;7.95;;;21.70;65.40;;;;;;4941127;28;95772;-40
2021/12/20 10:26:20;;;;;;;26.48;7.80;;;21.60;65.50;;;;;;4940610;28;95340;-41
2021/12/20 10:28:55;;;;;;;30.02;6.95;;;21.50;65.70;;;;;;4942186;28;97110;-40
2021/12/20 10:31:27;;;;;;;29.42;7.60;;;21.50;65.80;;;;;;4945858;28;96389;-41
2021/12/20 10:34:00;;;;;;;29.95;7.72;;;21.40;65.80;;;;;;4948083;28;95325;-41
2021/12/20 10:36:32;;;;;;;27.40;8.68;;;21.40;66.30;;;;;;4943620;28;95857;-40
2021/12/20 10:39:10;;;;;;;27.30;7.10;;;21.30;66.40;;;;;;4944998;28;95683;-40
2021/12/20 10:41:49;;;;;;;30.58;8.70;;;21.20;66.50;;;;;;4947713;28;96438;-40
2021/12/20 10:44:24;;;;;;;28.48;7.18;;;21.20;66.50;;;;;;4941737;28;95521;-40
2021/12/20 10:47:01;;;;;;;27.35;7.82;;;21.10;66.70;;;;;;4943337;28;96998;-41
2021/12/20 10:49:32;;;;;;;31.92;8.50;;;21.10;67.00;;;;;;4945843;28;96143;-41
2021/12/20 10:52:05;;;;;;;;;;;21.30;66.90;;;;;;4949738;28;95867;-41
2021/12/20 10:54:43;;;;;;;26.63;7.47;;;21.40;66.30;;;;;;4950666;28;95984;-41
2021/12/20 10:57:31;;;;;;;18.77;6.32;;;21.40;66.20;;;;;;4945059;28;95879;-41
2021/12/20 11:00:31;;;;;;;33.95;7.18;;;21.40;66.00;;;;;;4952589;28;96189;-41
2021/12/20 11:03:41;;;;;;;33.03;7.27;;;21.20;65.90;;;;;;4932465;28;102509;-41
2021/12/20 11:06:25;;;;;;;22.85;7.45;;;20.90;66.60;;;;;;4942557;28;95614;-41
2021/12/20 11:09:09;;;;;;;34.58;8.48;;;20.70;67.20;;;;;;4945757;28;96114;-41
2021/12/20 11:11:41;;;;;;;31.83;8.88;;;20.60;67.80;;;;;;4950195;28;97795;-41
2021/12/20 11:14:11;;;;;;;26.58;8.13;;;20.60;67.60;;;;;;4949641;28;97209;-41
2021/12/20 11:16:49;;;;;;;28.63;6.90;;;20.50;67.60;;;;;;4945241;28;95810;-41
2021/12/20 11:19:35;;;;;;;30.05;7.57;;;20.30;68.30;;;;;;4949990;28;95770;-41
2021/12/20 11:22:26;;;;;;;26.40;7.82;;;20.20;68.70;;;;;;4948036;28;95390;-41
2021/12/20 11:25:05;;;;;;;;;;;20.20;69.00;;;;;;4950696;28;95916;-41
2021/12/20 11:27:51;;;;;;;32.47;8.73;;;20.10;69.10;;;;;;4947272;28;96202;-41
2021/12/20 11:30:29;;;;;;;30.38;7.80;;;20.00;69.40;;;;;;4941860;28;95543;-41
2021/12/20 11:32:59;;;;;;;34.97;7.82;;;19.90;69.60;;;;;;4945333;28;95677;-41
2021/12/20 11:35:30;;;;;;;32.22;8.32;;;19.80;70.00;;;;;;4950364;28;96016;-41
2021/12/20 11:38:01;;;;;;;25.63;6.22;;;19.70;70.30;;;;;;4949862;28;96034;-41
2021/12/20 11:40:34;;;;;;;23.13;6.60;;;19.70;70.70;;;;;;4948776;28;95998;-41
2021/12/20 11:43:04;;;;;;;26.65;6.85;;;19.70;70.50;;;;;;4950731;28;95735;-41
2021/12/20 11:45:37;;;;;;;25.60;7.10;;;19.70;70.70;;;;;;4944587;28;95982;-41
2021/12/20 11:48:13;;;;;;;27.15;7.38;;;19.40;71.10;;;;;;4951635;28;96142;-40
2021/12/20 11:50:44;;;;;;;26.00;7.03;;;19.40;71.40;;;;;;4951676;28;95784;-41
2021/12/20 11:53:17;;;;;;;27.30;6.32;;;19.50;71.40;;;;;;4951329;28;95716;-41
2021/12/20 11:55:53;;;;;;;30.75;6.88;;;19.40;71.30;;;;;;4948731;28;96214;-41
2021/12/20 11:58:28;;;;;;;31.10;7.93;;;19.40;71.70;;;;;;4948612;28;96367;-40
2021/12/20 12:01:05;;;;;;;27.60;6.68;;;19.40;71.70;;;;;;4945001;28;96090;-41
2021/12/20 12:03:39;;;;;;;27.73;7.00;;;19.30;71.90;;;;;;4949469;28;95340;-41
2021/12/20 12:06:23;;;;;;;29.88;7.53;;;19.30;71.90;;;;;;4949662;28;96226;-41
2021/12/20 12:08:59;;;;;;;28.60;7.15;;;19.20;72.40;;;;;;4949736;28;95760;-40
2021/12/20 12:11:50;;;;;;;19.35;6.13;;;19.20;72.20;;;;;;4945554;28;95529;-41
2021/12/20 12:14:33;;;;;;;26.20;7.67;;;19.20;72.50;;;;;;4947799;28;95638;-40
2021/12/20 12:17:09;;;;;;;28.60;7.03;;;19.10;72.40;;;;;;4941839;28;96055;-41
2021/12/20 12:19:54;;;;;;;27.27;7.40;;;19.20;72.50;;;;;;4946017;28;95809;-41
2021/12/20 12:22:34;;;;;;;22.52;7.18;;;19.10;72.50;;;;;;4949485;28;95346;-41
2021/12/20 12:25:36;;;;;;;24.42;6.78;;;19.20;72.50;;;;;;4950523;28;95326;-41
2021/12/20 12:28:09;;;;;;;24.70;7.05;;;19.20;72.50;;;;;;4946306;28;96240;-41
2021/12/20 12:30:42;;;;;;;25.70;6.45;;;19.10;72.50;;;;;;4942163;28;96192;-41
2021/12/20 12:33:15;;;;;;;26.13;6.80;;;19.10;72.80;;;;;;4948982;28;95843;-41
2021/12/20 12:35:51;;;;;;;25.15;7.22;;;19.10;72.80;;;;;;4948873;28;95531;-41
2021/12/20 12:38:48;;;;;;;28.48;7.22;;;19.10;72.80;;;;;;4946086;28;96434;-41
2021/12/20 12:41:24;;;;;;;26.38;6.82;;;19.00;72.60;;;;;;4948705;28;97067;-41
2021/12/20 12:44:03;;;;;;;22.75;6.10;;;18.90;72.80;;;;;;4949292;28;96174;-41
2021/12/20 12:47:00;;;;;;;28.17;6.65;;;18.80;72.80;;;;;;4943056;28;95925;-42
2021/12/20 12:49:34;;;;;;;25.60;7.32;;;18.80;73.10;;;;;;4949551;28;95893;-40
2021/12/20 12:52:31;;;;;;;25.27;6.93;;;18.70;73.10;;;;;;4948129;28;95719;-41
2021/12/20 12:55:24;;;;;;;25.23;6.47;;;18.70;73.10;;;;;;4948401;28;95629;-41
2021/12/20 12:57:55;;;;;;;26.30;6.45;;;18.60;73.30;;;;;;4947847;28;95864;-41
2021/12/20 13:00:31;;;;;;;24.27;6.80;;;18.60;73.50;;;;;;4944039;28;95923;-41
2021/12/20 13:03:13;;;;;;;26.60;7.47;;;18.60;73.50;;;;;;4947566;28;97916;-42
2021/12/20 13:05:45;;;;;;;26.27;7.05;;;18.50;72.80;;;;;;4950028;28;95493;-41
2021/12/20 13:08:19;;;;;;;27.15;7.65;;;18.50;73.60;;;;;;4949629;28;95743;-41
2021/12/20 13:10:53;;;;;;;24.63;6.30;;;18.50;73.50;;;;;;4947545;28;95949;-41
2021/12/20 13:13:28;;;;;;;24.08;6.90;;;18.60;73.40;;;;;;4942529;28;95567;-42
2021/12/20 13:16:03;;;;;;;25.58;7.47;;;18.50;73.20;;;;;;4932221;28;98003;-41
2021/12/20 13:18:37;;;;;;;26.30;6.70;;;18.50;73.60;;;;;;4940905;28;98149;-41
2021/12/20 13:21:19;;;;;;;29.75;7.03;;;18.50;73.40;;;;;;4939048;28;95945;-41
2021/12/20 13:23:52;;;;;;;23.60;5.43;;;18.50;73.50;;;;;;4946698;28;96963;-41
2021/12/20 13:26:23;;;;;;;27.60;7.05;;;18.40;73.40;;;;;;4945263;28;96057;-41
2021/12/20 13:28:55;;;;;;;;;;;18.40;73.60;;;;;;4945417;28;96217;-40
2021/12/20 13:31:27;;;;;;;26.92;7.15;;;18.30;73.80;;;;;;4938020;28;97958;-41
2021/12/20 13:34:00;;;;;;;24.40;7.05;;;18.20;74.20;;;;;;4939849;28;95965;-40
2021/12/20 13:36:35;;;;;;;31.73;6.97;;;18.00;74.20;;;;;;4941835;28;95257;-40